Time;durP1;ratioP1;P1;durP2;ratioP2;P2;SDS_P1;SDS_P2;PMS_P1;PMS_P2;Temp;Humidity;BMP_temperature;BMP_pressure;BME280_temperature;BME280_humidity;BME280_pressure;Samples;Min_cycle;Max_cycle;Signal;HPM_P1;HPM_P2
2022/11/12 00:05:31;;;;;;;8.45;2.67;;;;;;;;;;21004156;28;20048;-61
2022/11/12 00:15:33;;;;;;;6.18;2.30;;;;;;;;;;21003378;28;20417;-60
2022/11/12 00:25:35;;;;;;;6.80;2.40;;;;;;;;;;21003024;28;20045;-62
2022/11/12 00:35:37;;;;;;;6.28;2.65;;;;;;;;;;21001662;28;20449;-61
2022/11/12 00:45:38;;;;;;;4.95;1.65;;;;;;;;;;21000485;28;20149;-60
2022/11/12 00:55:40;;;;;;;5.70;2.70;;;;;;;;;;20999534;28;20132;-60
2022/11/12 01:05:41;;;;;;;5.70;2.00;;;;;;;;;;20999044;28;20135;-61
2022/11/12 01:15:43;;;;;;;9.07;2.42;;;;;;;;;;20998292;28;20465;-61
2022/11/12 01:25:45;;;;;;;8.98;2.75;;;;;;;;;;20998425;28;20460;-61
2022/11/12 01:35:46;;;;;;;8.85;2.55;;;;;;;;;;20997603;28;20158;-62
2022/11/12 01:45:50;;;;;;;5.35;2.22;;;;;;;;;;20996945;28;20052;-63
2022/11/12 01:55:52;;;;;;;8.43;2.72;;;;;;;;;;20996031;28;20131;-63
2022/11/12 02:05:59;;;;;;;5.88;2.47;;;;;;;;;;20995403;28;20099;-62
2022/11/12 02:16:05;;;;;;;10.82;2.47;;;;;;;;;;20995463;28;20080;-61
2022/11/12 02:26:06;;;;;;;8.38;2.40;;;;;;;;;;21008608;28;20048;-62
2022/11/12 02:36:09;;;;;;;10.93;2.58;;;;;;;;;;21010754;28;20131;-62
2022/11/12 02:46:15;;;;;;;7.72;3.15;;;;;;;;;;21010579;28;20080;-62
2022/11/12 02:56:18;;;;;;;9.88;2.78;;;;;;;;;;21009079;28;20457;-62
2022/11/12 03:06:25;;;;;;;7.13;2.42;;;;;;;;;;21009134;28;20084;-63
2022/11/12 03:16:30;;;;;;;8.13;2.97;;;;;;;;;;21008918;28;20132;-61
2022/11/12 03:26:33;;;;;;;7.30;2.80;;;;;;;;;;21006858;28;20139;-61
2022/11/12 03:36:37;;;;;;;6.85;2.97;;;;;;;;;;21005655;28;20136;-62
2022/11/12 03:46:40;;;;;;;10.63;3.20;;;;;;;;;;21006039;28;20398;-61
2022/11/12 03:56:43;;;;;;;10.98;2.63;;;;;;;;;;21004362;28;20382;-62
2022/11/12 04:27:27;;;;;;;5.28;1.63;;;;;;;;;;21002877;28;20044;-63
2022/11/12 04:37:52;;;;;;;8.63;1.85;;;;;;;;;;21002127;28;20045;-61
2022/11/12 04:47:53;;;;;;;6.53;1.63;;;;;;;;;;20999901;28;20063;-62
2022/11/12 04:57:54;;;;;;;6.97;1.50;;;;;;;;;;20999349;28;20489;-62
2022/11/12 05:07:58;;;;;;;7.55;2.10;;;;;;;;;;20998343;28;20059;-61
2022/11/12 05:18:00;;;;;;;8.23;1.83;;;;;;;;;;20998253;28;20118;-61
2022/11/12 05:28:02;;;;;;;7.70;1.60;;;;;;;;;;20998414;28;20071;-62
2022/11/12 05:38:03;;;;;;;6.53;2.28;;;;;;;;;;20997764;28;20500;-61
2022/11/12 05:48:05;;;;;;;4.88;1.33;;;;;;;;;;20996747;28;20056;-61
2022/11/12 05:58:07;;;;;;;7.93;2.13;;;;;;;;;;20996692;28;20455;-61
2022/11/12 06:08:09;;;;;;;13.52;2.33;;;;;;;;;;20996026;28;20131;-62
2022/11/12 06:18:11;;;;;;;9.38;2.92;;;;;;;;;;20995571;28;20389;-63
2022/11/12 06:28:12;;;;;;;11.25;2.47;;;;;;;;;;20995562;28;20443;-61
2022/11/12 06:38:14;;;;;;;6.57;2.70;;;;;;;;;;20995051;28;20043;-62
2022/11/12 06:48:15;;;;;;;10.55;2.95;;;;;;;;;;20994585;28;20439;-61
2022/11/12 06:58:17;;;;;;;7.70;3.00;;;;;;;;;;20994525;28;20052;-61
2022/11/12 07:08:19;;;;;;;6.70;2.33;;;;;;;;;;20998937;28;20044;-62
2022/11/12 07:18:21;;;;;;;5.43;2.30;;;;;;;;;;21006346;28;20086;-61
2022/11/12 07:28:23;;;;;;;8.43;2.67;;;;;;;;;;21007529;28;20416;-61
2022/11/12 07:38:25;;;;;;;9.88;3.25;;;;;;;;;;21006217;28;20071;-62
2022/11/12 07:48:28;;;;;;;7.90;2.90;;;;;;;;;;21005531;28;20520;-62
2022/11/12 07:58:31;;;;;;;7.95;3.15;;;;;;;;;;21005809;28;20072;-61
2022/11/12 08:08:32;;;;;;;9.38;3.20;;;;;;;;;;21004946;28;20059;-62
2022/11/12 08:18:34;;;;;;;6.93;3.55;;;;;;;;;;21004035;28;20135;-63
2022/11/12 08:28:36;;;;;;;7.45;3.60;;;;;;;;;;21003416;28;20186;-62
2022/11/12 08:38:38;;;;;;;9.35;3.53;;;;;;;;;;21002074;28;20045;-61
2022/11/12 08:48:40;;;;;;;8.88;4.63;;;;;;;;;;21000943;28;20045;-62
2022/11/12 08:58:42;;;;;;;11.98;3.45;;;;;;;;;;20999479;28;20044;-62
2022/11/12 09:08:44;;;;;;;12.55;3.72;;;;;;;;;;20998295;28;20051;-62
2022/11/12 09:18:45;;;;;;;10.75;3.40;;;;;;;;;;20999100;28;20405;-62
2022/11/12 09:28:47;;;;;;;8.73;3.63;;;;;;;;;;20997243;28;20053;-62
2022/11/12 09:38:49;;;;;;;16.40;5.55;;;;;;;;;;20997538;28;20404;-65
2022/11/12 09:49:00;;;;;;;22.98;5.10;;;;;;;;;;20996414;28;20092;-64
2022/11/12 09:59:03;;;;;;;12.88;5.20;;;;;;;;;;20995490;28;20055;-63
2022/11/12 10:09:10;;;;;;;10.30;3.85;;;;;;;;;;20995554;28;20048;-64
2022/11/12 10:19:31;;;;;;;14.18;3.75;;;;;;;;;;20995941;28;20052;-65
2022/11/12 10:29:42;;;;;;;8.52;3.28;;;;;;;;;;20996404;28;20139;-63
2022/11/12 10:39:46;;;;;;;8.73;3.47;;;;;;;;;;20996316;28;20045;-64
2022/11/12 10:50:07;;;;;;;9.20;2.70;;;;;;;;;;21010597;28;20524;-64
2022/11/12 11:00:09;;;;;;;10.93;3.42;;;;;;;;;;21009589;28;20045;-64
2022/11/12 11:10:22;;;;;;;8.15;3.15;;;;;;;;;;21008048;28;20098;-66
2022/11/12 11:20:27;;;;;;;12.68;3.22;;;;;;;;;;21008155;28;20447;-65
2022/11/12 11:30:30;;;;;;;11.82;3.10;;;;;;;;;;21007514;28;20063;-65
2022/11/12 11:40:36;;;;;;;11.85;4.15;;;;;;;;;;21007804;28;20455;-65
2022/11/12 11:50:59;;;;;;;8.98;2.63;;;;;;;;;;21004771;28;20053;-65
2022/11/12 12:01:18;;;;;;;10.05;3.20;;;;;;;;;;21004353;28;20056;-64
2022/11/12 12:11:29;;;;;;;9.35;3.42;;;;;;;;;;21003385;28;20084;-64
2022/11/12 12:21:34;;;;;;;11.60;2.72;;;;;;;;;;21003624;28;20049;-64
2022/11/12 12:31:38;;;;;;;12.90;4.65;;;;;;;;;;21001881;28;20059;-64
2022/11/12 12:41:50;;;;;;;10.70;3.05;;;;;;;;;;21001097;28;20079;-64
2022/11/12 12:51:52;;;;;;;8.75;3.03;;;;;;;;;;20999552;28;20067;-64
2022/11/12 13:02:03;;;;;;;9.73;2.58;;;;;;;;;;20999312;28;20079;-64
2022/11/12 13:22:17;;;;;;;12.35;2.10;;;;;;;;;;20997888;28;20382;-64
2022/11/12 13:32:37;;;;;;;18.03;3.33;;;;;;;;;;20998533;28;20082;-65
2022/11/12 13:42:48;;;;;;;7.25;2.70;;;;;;;;;;20997670;28;20455;-65
2022/11/12 13:52:51;;;;;;;9.85;3.00;;;;;;;;;;20995689;28;20057;-64
2022/11/12 14:03:04;;;;;;;11.57;3.17;;;;;;;;;;20996728;28;20045;-64
2022/11/12 14:13:06;;;;;;;12.63;2.50;;;;;;;;;;20994011;28;20084;-66
2022/11/12 14:23:14;;;;;;;12.95;2.92;;;;;;;;;;21011441;28;20044;-66
2022/11/12 14:33:20;;;;;;;10.25;2.67;;;;;;;;;;21011398;28;20053;-65
2022/11/12 14:43:37;;;;;;;10.00;2.60;;;;;;;;;;21010800;28;20055;-65
2022/11/12 14:53:45;;;;;;;10.13;2.85;;;;;;;;;;21010176;28;20076;-65
2022/11/12 15:03:46;;;;;;;7.50;2.30;;;;;;;;;;21010640;28;20102;-65
2022/11/12 15:13:49;;;;;;;12.40;3.08;;;;;;;;;;21009196;28;20055;-64
2022/11/12 15:23:52;;;;;;;12.38;2.47;;;;;;;;;;21009059;28;20477;-64
2022/11/12 15:33:55;;;;;;;8.95;2.47;;;;;;;;;;21008531;28;20055;-64
2022/11/12 15:43:57;;;;;;;9.75;2.30;;;;;;;;;;21007021;28;20048;-63
2022/11/12 15:53:58;;;;;;;13.00;2.10;;;;;;;;;;21004976;28;20044;-64
2022/11/12 16:04:00;;;;;;;7.80;2.45;;;;;;;;;;21004449;28;20044;-64
2022/11/12 16:14:10;;;;;;;14.18;2.78;;;;;;;;;;21004787;28;20052;-64
2022/11/12 16:24:12;;;;;;;11.13;2.33;;;;;;;;;;21003347;28;20106;-65
2022/11/12 16:34:14;;;;;;;3.72;1.23;;;;;;;;;;21001970;28;20405;-64
2022/11/12 16:44:16;;;;;;;1.02;0.40;;;;;;;;;;21001488;28;20113;-65
2022/11/12 16:54:17;;;;;;;2.85;0.75;;;;;;;;;;21000233;28;20053;-64
2022/11/12 17:04:20;;;;;;;1.63;0.82;;;;;;;;;;20998791;28;20117;-64
2022/11/12 17:14:22;;;;;;;4.72;0.95;;;;;;;;;;20999390;28;20151;-65
2022/11/12 17:24:25;;;;;;;2.90;1.10;;;;;;;;;;20997583;28;20131;-64
2022/11/12 17:34:27;;;;;;;2.25;0.95;;;;;;;;;;20997031;28;20060;-65
2022/11/12 17:44:29;;;;;;;5.53;1.40;;;;;;;;;;20996384;28;20045;-65
2022/11/12 17:54:31;;;;;;;3.58;1.63;;;;;;;;;;20994966;28;20044;-65
2022/11/12 18:04:33;;;;;;;2.20;1.00;;;;;;;;;;20996553;28;20053;-64
2022/11/12 18:14:35;;;;;;;6.60;3.13;;;;;;;;;;20994744;28;20131;-64
2022/11/12 18:24:37;;;;;;;7.40;1.40;;;;;;;;;;20994487;28;20051;-64
2022/11/12 18:34:43;;;;;;;4.38;0.90;;;;;;;;;;20994258;28;20053;-66
2022/11/12 18:44:46;;;;;;;5.30;1.50;;;;;;;;;;20993952;28;20056;-63
2022/11/12 18:54:47;;;;;;;2.67;1.13;;;;;;;;;;20992158;28;20048;-63
2022/11/12 19:04:49;;;;;;;5.88;2.40;;;;;;;;;;21001086;28;20044;-64
2022/11/12 19:14:51;;;;;;;6.60;2.80;;;;;;;;;;21007571;28;20064;-65
2022/11/12 19:24:53;;;;;;;5.70;2.58;;;;;;;;;;21007633;28;20056;-64
2022/11/12 19:34:55;;;;;;;2.25;0.95;;;;;;;;;;21007118;28;20049;-63
2022/11/12 19:44:59;;;;;;;2.25;1.40;;;;;;;;;;21006008;28;20095;-64
2022/11/12 19:55:01;;;;;;;5.53;2.42;;;;;;;;;;21002988;28;20049;-64
2022/11/12 20:05:03;;;;;;;7.30;3.10;;;;;;;;;;21003699;28;20052;-65
2022/11/12 20:15:05;;;;;;;7.40;2.40;;;;;;;;;;21002329;28;20079;-65
2022/11/12 20:25:07;;;;;;;9.27;3.45;;;;;;;;;;21002831;28;20444;-64
2022/11/12 20:35:09;;;;;;;6.55;2.70;;;;;;;;;;21000702;28;20055;-64
2022/11/12 20:45:12;;;;;;;56.63;31.27;;;;;;;;;;21000992;28;20510;-65
2022/11/12 20:55:13;;;;;;;8.45;2.78;;;;;;;;;;20999820;28;20048;-66
2022/11/12 21:05:15;;;;;;;8.77;3.63;;;;;;;;;;20999568;28;20048;-65
2022/11/12 21:15:17;;;;;;;7.15;2.10;;;;;;;;;;20998144;28;20064;-64
2022/11/12 21:25:20;;;;;;;8.18;2.80;;;;;;;;;;20996565;28;20049;-64
2022/11/12 21:35:22;;;;;;;10.05;3.83;;;;;;;;;;20996669;28;20171;-62
2022/11/12 21:45:24;;;;;;;11.30;4.18;;;;;;;;;;20995693;28;20448;-61
2022/11/12 21:55:26;;;;;;;8.57;4.43;;;;;;;;;;20994755;28;20052;-61
2022/11/12 22:05:28;;;;;;;10.90;5.68;;;;;;;;;;20994371;28;20055;-62
2022/11/12 22:15:29;;;;;;;9.48;5.20;;;;;;;;;;20994969;28;20503;-62
2022/11/12 22:25:31;;;;;;;16.10;7.15;;;;;;;;;;20996153;28;20071;-62
2022/11/12 22:35:34;;;;;;;10.15;5.90;;;;;;;;;;20995345;28;20374;-62
2022/11/12 22:45:36;;;;;;;9.85;4.70;;;;;;;;;;21012087;28;20421;-61
2022/11/12 22:55:38;;;;;;;11.20;5.47;;;;;;;;;;21011123;28;20119;-62
2022/11/12 23:05:41;;;;;;;8.73;4.28;;;;;;;;;;21010440;28;20477;-61
2022/11/12 23:15:43;;;;;;;15.85;6.60;;;;;;;;;;21008677;28;20048;-62
2022/11/12 23:25:45;;;;;;;13.77;5.55;;;;;;;;;;21007957;28;20539;-62
2022/11/12 23:35:47;;;;;;;17.95;9.70;;;;;;;;;;21006890;28;20098;-62
2022/11/12 23:45:50;;;;;;;15.02;8.45;;;;;;;;;;21005740;28;20080;-62
2022/11/12 23:55:52;;;;;;;14.45;7.03;;;;;;;;;;21004601;28;20405;-62
